sensor_id;sensor_type;location;lat;lon;timestamp;temperature;humidity
25024;DHT22;13033;50.936;5.334;2024-02-26T00:01:23;8.30;99.90
25024;DHT22;13033;50.936;5.334;2024-02-26T00:03:49;8.40;99.90
25024;DHT22;13033;50.936;5.334;2024-02-26T00:06:15;8.40;99.90
25024;DHT22;13033;50.936;5.334;2024-02-26T00:08:41;8.40;99.90
25024;DHT22;13033;50.936;5.334;2024-02-26T00:11:07;8.40;99.90
25024;DHT22;13033;50.936;5.334;2024-02-26T00:13:32;8.30;99.90
25024;DHT22;13033;50.936;5.334;2024-02-26T00:15:58;8.20;99.90
25024;DHT22;13033;50.936;5.334;2024-02-26T00:18:24;8.20;99.90
25024;DHT22;13033;50.936;5.334;2024-02-26T00:20:49;8.20;99.90
25024;DHT22;13033;50.936;5.334;2024-02-26T00:23:15;8.10;99.90
25024;DHT22;13033;50.936;5.334;2024-02-26T00:25:41;8.10;99.90
25024;DHT22;13033;50.936;5.334;2024-02-26T00:28:09;8.10;99.90
25024;DHT22;13033;50.936;5.334;2024-02-26T00:30:35;8.20;99.90
25024;DHT22;13033;50.936;5.334;2024-02-26T00:33:01;8.10;99.90
25024;DHT22;13033;50.936;5.334;2024-02-26T00:35:26;8.00;99.90
25024;DHT22;13033;50.936;5.334;2024-02-26T00:37:52;7.90;99.90
25024;DHT22;13033;50.936;5.334;2024-02-26T00:40:18;7.90;99.90
25024;DHT22;13033;50.936;5.334;2024-02-26T00:42:44;8.00;99.90
25024;DHT22;13033;50.936;5.334;2024-02-26T00:45:14;8.00;99.90
25024;DHT22;13033;50.936;5.334;2024-02-26T00:47:41;8.10;99.90
25024;DHT22;13033;50.936;5.334;2024-02-26T00:50:08;8.10;99.90
25024;DHT22;13033;50.936;5.334;2024-02-26T00:52:34;8.00;99.90
25024;DHT22;13033;50.936;5.334;2024-02-26T00:55:01;8.00;99.90
25024;DHT22;13033;50.936;5.334;2024-02-26T00:57:27;7.90;99.90
25024;DHT22;13033;50.936;5.334;2024-02-26T00:59:53;7.90;99.90
25024;DHT22;13033;50.936;5.334;2024-02-26T01:02:21;7.70;99.90
25024;DHT22;13033;50.936;5.334;2024-02-26T01:04:47;7.60;99.90
25024;DHT22;13033;50.936;5.334;2024-02-26T01:07:13;7.60;99.90
25024;DHT22;13033;50.936;5.334;2024-02-26T01:09:38;7.50;99.90
25024;DHT22;13033;50.936;5.334;2024-02-26T01:12:04;7.70;99.90
25024;DHT22;13033;50.936;5.334;2024-02-26T01:14:30;7.80;99.90
25024;DHT22;13033;50.936;5.334;2024-02-26T01:16:55;7.80;99.90
25024;DHT22;13033;50.936;5.334;2024-02-26T01:19:21;7.70;99.90
25024;DHT22;13033;50.936;5.334;2024-02-26T01:21:47;7.70;99.90
25024;DHT22;13033;50.936;5.334;2024-02-26T01:24:12;7.80;99.90
25024;DHT22;13033;50.936;5.334;2024-02-26T01:26:39;7.60;99.90
25024;DHT22;13033;50.936;5.334;2024-02-26T01:29:05;7.50;99.90
25024;DHT22;13033;50.936;5.334;2024-02-26T01:31:31;7.60;99.90
25024;DHT22;13033;50.936;5.334;2024-02-26T01:33:56;7.80;99.90
25024;DHT22;13033;50.936;5.334;2024-02-26T01:36:22;7.80;99.90
25024;DHT22;13033;50.936;5.334;2024-02-26T01:38:47;7.80;99.90
25024;DHT22;13033;50.936;5.334;2024-02-26T01:41:14;7.60;99.90
25024;DHT22;13033;50.936;5.334;2024-02-26T01:43:40;7.50;99.90
25024;DHT22;13033;50.936;5.334;2024-02-26T01:46:06;7.60;99.90
25024;DHT22;13033;50.936;5.334;2024-02-26T01:48:35;7.60;99.90
25024;DHT22;13033;50.936;5.334;2024-02-26T01:51:01;7.50;99.90
25024;DHT22;13033;50.936;5.334;2024-02-26T01:53:26;7.50;99.90
25024;DHT22;13033;50.936;5.334;2024-02-26T01:55:52;7.60;99.90
25024;DHT22;13033;50.936;5.334;2024-02-26T01:58:18;7.50;99.90
25024;DHT22;13033;50.936;5.334;2024-02-26T02:00:44;7.50;99.90
25024;DHT22;13033;50.936;5.334;2024-02-26T02:03:09;7.60;99.90
25024;DHT22;13033;50.936;5.334;2024-02-26T02:05:36;7.50;99.90
25024;DHT22;13033;50.936;5.334;2024-02-26T02:08:08;7.50;99.90
25024;DHT22;13033;50.936;5.334;2024-02-26T02:10:34;7.50;99.90
25024;DHT22;13033;50.936;5.334;2024-02-26T02:13:00;7.40;99.90
25024;DHT22;13033;50.936;5.334;2024-02-26T02:15:26;7.50;99.90
25024;DHT22;13033;50.936;5.334;2024-02-26T02:17:52;7.50;99.90
25024;DHT22;13033;50.936;5.334;2024-02-26T02:20:18;7.40;99.90
25024;DHT22;13033;50.936;5.334;2024-02-26T02:22:47;7.40;99.90
25024;DHT22;13033;50.936;5.334;2024-02-26T02:25:13;7.50;99.90
25024;DHT22;13033;50.936;5.334;2024-02-26T02:27:39;7.50;99.90
25024;DHT22;13033;50.936;5.334;2024-02-26T02:30:06;7.40;99.90
25024;DHT22;13033;50.936;5.334;2024-02-26T02:32:33;7.50;99.90
25024;DHT22;13033;50.936;5.334;2024-02-26T02:34:59;7.50;99.90
25024;DHT22;13033;50.936;5.334;2024-02-26T02:37:24;7.50;99.90
25024;DHT22;13033;50.936;5.334;2024-02-26T02:39:50;7.40;99.90
25024;DHT22;13033;50.936;5.334;2024-02-26T02:42:16;7.30;99.90
25024;DHT22;13033;50.936;5.334;2024-02-26T02:44:41;7.20;99.90
25024;DHT22;13033;50.936;5.334;2024-02-26T02:47:07;7.30;99.90
25024;DHT22;13033;50.936;5.334;2024-02-26T02:49:33;7.30;99.90
25024;DHT22;13033;50.936;5.334;2024-02-26T02:51:59;7.30;99.90
25024;DHT22;13033;50.936;5.334;2024-02-26T02:54:24;7.30;99.90
25024;DHT22;13033;50.936;5.334;2024-02-26T02:56:50;7.30;99.90
25024;DHT22;13033;50.936;5.334;2024-02-26T02:59:15;7.30;99.90
25024;DHT22;13033;50.936;5.334;2024-02-26T03:01:41;7.30;99.90
25024;DHT22;13033;50.936;5.334;2024-02-26T03:04:07;7.30;99.90
25024;DHT22;13033;50.936;5.334;2024-02-26T03:06:32;7.20;99.90
25024;DHT22;13033;50.936;5.334;2024-02-26T03:08:58;7.20;99.90
25024;DHT22;13033;50.936;5.334;2024-02-26T03:11:24;7.30;99.90
25024;DHT22;13033;50.936;5.334;2024-02-26T03:13:51;7.40;99.90
25024;DHT22;13033;50.936;5.334;2024-02-26T03:16:17;7.30;99.90
25024;DHT22;13033;50.936;5.334;2024-02-26T03:18:43;7.20;99.90
25024;DHT22;13033;50.936;5.334;2024-02-26T03:21:09;7.20;99.90
25024;DHT22;13033;50.936;5.334;2024-02-26T03:23:34;7.20;99.90
25024;DHT22;13033;50.936;5.334;2024-02-26T03:26:04;7.10;99.90
25024;DHT22;13033;50.936;5.334;2024-02-26T03:28:29;7.30;99.90
25024;DHT22;13033;50.936;5.334;2024-02-26T03:30:56;7.20;99.90
25024;DHT22;13033;50.936;5.334;2024-02-26T03:33:22;7.10;99.90
25024;DHT22;13033;50.936;5.334;2024-02-26T03:35:48;7.10;99.90
25024;DHT22;13033;50.936;5.334;2024-02-26T03:38:13;7.10;99.90
25024;DHT22;13033;50.936;5.334;2024-02-26T03:40:39;7.00;99.90
25024;DHT22;13033;50.936;5.334;2024-02-26T03:43:05;7.00;99.90
25024;DHT22;13033;50.936;5.334;2024-02-26T03:45:33;7.10;99.90
25024;DHT22;13033;50.936;5.334;2024-02-26T03:47:59;7.00;99.90
25024;DHT22;13033;50.936;5.334;2024-02-26T03:50:25;7.10;99.90
25024;DHT22;13033;50.936;5.334;2024-02-26T03:52:50;7.10;99.90
25024;DHT22;13033;50.936;5.334;2024-02-26T03:55:16;7.00;99.90
25024;DHT22;13033;50.936;5.334;2024-02-26T03:57:46;7.00;99.90
25024;DHT22;13033;50.936;5.334;2024-02-26T04:00:12;7.00;99.90
25024;DHT22;13033;50.936;5.334;2024-02-26T04:02:38;7.20;99.90
25024;DHT22;13033;50.936;5.334;2024-02-26T04:05:04;7.30;99.90
25024;DHT22;13033;50.936;5.334;2024-02-26T04:07:30;7.20;99.90
25024;DHT22;13033;50.936;5.334;2024-02-26T04:09:56;7.30;99.90
25024;DHT22;13033;50.936;5.334;2024-02-26T04:12:22;7.30;99.90
25024;DHT22;13033;50.936;5.334;2024-02-26T04:14:48;7.20;99.90
25024;DHT22;13033;50.936;5.334;2024-02-26T04:17:13;7.20;99.90
25024;DHT22;13033;50.936;5.334;2024-02-26T04:19:39;7.20;99.90
25024;DHT22;13033;50.936;5.334;2024-02-26T04:22:04;7.20;99.90
25024;DHT22;13033;50.936;5.334;2024-02-26T04:24:30;7.20;99.90
25024;DHT22;13033;50.936;5.334;2024-02-26T04:26:56;7.00;99.90
25024;DHT22;13033;50.936;5.334;2024-02-26T04:29:22;6.90;99.90
25024;DHT22;13033;50.936;5.334;2024-02-26T04:31:47;7.00;99.90
25024;DHT22;13033;50.936;5.334;2024-02-26T04:34:13;7.00;99.90
25024;DHT22;13033;50.936;5.334;2024-02-26T04:36:39;7.00;99.90
25024;DHT22;13033;50.936;5.334;2024-02-26T04:39:04;7.00;99.90
25024;DHT22;13033;50.936;5.334;2024-02-26T04:41:30;7.00;99.90
25024;DHT22;13033;50.936;5.334;2024-02-26T04:43:56;7.10;99.90
25024;DHT22;13033;50.936;5.334;2024-02-26T04:46:21;7.10;99.90
25024;DHT22;13033;50.936;5.334;2024-02-26T04:48:47;7.10;99.90
25024;DHT22;13033;50.936;5.334;2024-02-26T04:51:13;7.10;99.90
25024;DHT22;13033;50.936;5.334;2024-02-26T04:53:39;7.10;99.90
25024;DHT22;13033;50.936;5.334;2024-02-26T04:56:05;7.10;99.90
25024;DHT22;13033;50.936;5.334;2024-02-26T04:58:30;7.10;99.90
25024;DHT22;13033;50.936;5.334;2024-02-26T05:00:56;7.20;99.90
25024;DHT22;13033;50.936;5.334;2024-02-26T05:03:22;7.10;99.90
25024;DHT22;13033;50.936;5.334;2024-02-26T05:05:47;7.10;99.90
25024;DHT22;13033;50.936;5.334;2024-02-26T05:08:13;7.00;99.90
25024;DHT22;13033;50.936;5.334;2024-02-26T05:10:39;7.00;99.90
25024;DHT22;13033;50.936;5.334;2024-02-26T05:13:09;7.00;99.90
25024;DHT22;13033;50.936;5.334;2024-02-26T05:15:35;6.90;99.90
25024;DHT22;13033;50.936;5.334;2024-02-26T05:18:01;6.80;99.90
25024;DHT22;13033;50.936;5.334;2024-02-26T05:20:28;6.90;99.90
25024;DHT22;13033;50.936;5.334;2024-02-26T05:22:54;6.90;99.90
25024;DHT22;13033;50.936;5.334;2024-02-26T05:25:19;6.90;99.90
25024;DHT22;13033;50.936;5.334;2024-02-26T05:27:45;6.90;99.90
25024;DHT22;13033;50.936;5.334;2024-02-26T05:30:11;6.90;99.90
25024;DHT22;13033;50.936;5.334;2024-02-26T05:32:37;6.90;99.90
25024;DHT22;13033;50.936;5.334;2024-02-26T05:35:03;6.80;99.90
25024;DHT22;13033;50.936;5.334;2024-02-26T05:37:29;6.80;99.90
25024;DHT22;13033;50.936;5.334;2024-02-26T05:39:55;6.80;99.90
25024;DHT22;13033;50.936;5.334;2024-02-26T05:42:21;6.80;99.90
25024;DHT22;13033;50.936;5.334;2024-02-26T05:44:47;6.80;99.90
25024;DHT22;13033;50.936;5.334;2024-02-26T05:47:12;6.70;99.90
25024;DHT22;13033;50.936;5.334;2024-02-26T05:49:39;6.70;99.90
25024;DHT22;13033;50.936;5.334;2024-02-26T05:52:05;6.70;99.90
25024;DHT22;13033;50.936;5.334;2024-02-26T05:54:31;6.70;99.90
25024;DHT22;13033;50.936;5.334;2024-02-26T05:56:57;6.70;99.90
25024;DHT22;13033;50.936;5.334;2024-02-26T05:59:23;6.70;99.90
25024;DHT22;13033;50.936;5.334;2024-02-26T06:01:49;6.70;99.90
25024;DHT22;13033;50.936;5.334;2024-02-26T06:04:15;6.60;99.90
25024;DHT22;13033;50.936;5.334;2024-02-26T06:06:42;6.70;99.90
25024;DHT22;13033;50.936;5.334;2024-02-26T06:09:08;6.80;99.90
25024;DHT22;13033;50.936;5.334;2024-02-26T06:11:33;6.80;99.90
25024;DHT22;13033;50.936;5.334;2024-02-26T06:13:59;6.80;99.90
25024;DHT22;13033;50.936;5.334;2024-02-26T06:16:25;6.70;99.90
25024;DHT22;13033;50.936;5.334;2024-02-26T06:18:50;6.70;99.90
25024;DHT22;13033;50.936;5.334;2024-02-26T06:21:16;6.70;99.90
25024;DHT22;13033;50.936;5.334;2024-02-26T06:23:42;6.60;99.90
25024;DHT22;13033;50.936;5.334;2024-02-26T06:26:07;6.70;99.90
25024;DHT22;13033;50.936;5.334;2024-02-26T06:28:33;6.70;99.90
25024;DHT22;13033;50.936;5.334;2024-02-26T06:31:01;6.70;99.90
25024;DHT22;13033;50.936;5.334;2024-02-26T06:33:27;6.70;99.90
25024;DHT22;13033;50.936;5.334;2024-02-26T06:35:52;6.70;99.90
25024;DHT22;13033;50.936;5.334;2024-02-26T06:38:18;6.60;99.90
25024;DHT22;13033;50.936;5.334;2024-02-26T06:40:44;6.60;99.90
25024;DHT22;13033;50.936;5.334;2024-02-26T06:43:10;6.60;99.90
25024;DHT22;13033;50.936;5.334;2024-02-26T06:45:36;6.50;99.90
25024;DHT22;13033;50.936;5.334;2024-02-26T06:48:01;6.60;99.90
25024;DHT22;13033;50.936;5.334;2024-02-26T06:50:28;6.70;99.90
25024;DHT22;13033;50.936;5.334;2024-02-26T06:52:53;6.70;99.90
25024;DHT22;13033;50.936;5.334;2024-02-26T06:55:19;6.70;99.90
25024;DHT22;13033;50.936;5.334;2024-02-26T06:57:45;6.70;99.90
25024;DHT22;13033;50.936;5.334;2024-02-26T07:00:11;6.70;99.90
25024;DHT22;13033;50.936;5.334;2024-02-26T07:02:40;6.70;99.90
25024;DHT22;13033;50.936;5.334;2024-02-26T07:05:06;6.60;99.90
25024;DHT22;13033;50.936;5.334;2024-02-26T07:07:32;6.60;99.90
25024;DHT22;13033;50.936;5.334;2024-02-26T07:09:58;6.70;99.90
25024;DHT22;13033;50.936;5.334;2024-02-26T07:12:23;6.70;99.90
25024;DHT22;13033;50.936;5.334;2024-02-26T07:14:49;6.60;99.90
25024;DHT22;13033;50.936;5.334;2024-02-26T07:17:16;6.60;99.90
25024;DHT22;13033;50.936;5.334;2024-02-26T07:19:42;6.70;99.90
25024;DHT22;13033;50.936;5.334;2024-02-26T07:22:08;6.60;99.90
25024;DHT22;13033;50.936;5.334;2024-02-26T07:24:33;6.60;99.90
25024;DHT22;13033;50.936;5.334;2024-02-26T07:26:59;6.50;99.90
25024;DHT22;13033;50.936;5.334;2024-02-26T07:29:25;6.50;99.90
25024;DHT22;13033;50.936;5.334;2024-02-26T07:31:51;6.60;99.90
25024;DHT22;13033;50.936;5.334;2024-02-26T07:34:16;6.50;99.90
25024;DHT22;13033;50.936;5.334;2024-02-26T07:36:42;6.50;99.90
25024;DHT22;13033;50.936;5.334;2024-02-26T07:39:08;6.50;99.90
25024;DHT22;13033;50.936;5.334;2024-02-26T07:41:33;6.50;99.90
25024;DHT22;13033;50.936;5.334;2024-02-26T07:43:59;6.40;99.90
25024;DHT22;13033;50.936;5.334;2024-02-26T07:46:25;6.50;99.90
25024;DHT22;13033;50.936;5.334;2024-02-26T07:48:51;6.50;99.90
25024;DHT22;13033;50.936;5.334;2024-02-26T07:51:16;6.50;99.90
25024;DHT22;13033;50.936;5.334;2024-02-26T07:53:43;6.50;99.90
25024;DHT22;13033;50.936;5.334;2024-02-26T07:56:09;6.50;99.90
25024;DHT22;13033;50.936;5.334;2024-02-26T07:58:35;6.50;99.90
25024;DHT22;13033;50.936;5.334;2024-02-26T08:01:01;6.60;99.90
25024;DHT22;13033;50.936;5.334;2024-02-26T08:03:28;6.50;99.90
25024;DHT22;13033;50.936;5.334;2024-02-26T08:05:54;6.50;99.90
25024;DHT22;13033;50.936;5.334;2024-02-26T08:08:20;6.60;99.90
25024;DHT22;13033;50.936;5.334;2024-02-26T08:10:45;6.60;99.90
25024;DHT22;13033;50.936;5.334;2024-02-26T08:13:11;6.70;99.90
25024;DHT22;13033;50.936;5.334;2024-02-26T08:15:37;6.70;99.90
25024;DHT22;13033;50.936;5.334;2024-02-26T08:18:03;6.70;99.90
25024;DHT22;13033;50.936;5.334;2024-02-26T08:20:29;6.70;99.90
25024;DHT22;13033;50.936;5.334;2024-02-26T08:22:56;6.50;99.90
25024;DHT22;13033;50.936;5.334;2024-02-26T08:25:22;6.50;99.90
25024;DHT22;13033;50.936;5.334;2024-02-26T08:27:47;6.50;99.90
25024;DHT22;13033;50.936;5.334;2024-02-26T08:30:14;6.60;99.90
25024;DHT22;13033;50.936;5.334;2024-02-26T08:32:43;6.50;99.90
25024;DHT22;13033;50.936;5.334;2024-02-26T08:35:08;6.60;99.90
25024;DHT22;13033;50.936;5.334;2024-02-26T08:37:34;6.60;99.90
25024;DHT22;13033;50.936;5.334;2024-02-26T08:40:01;6.80;99.90
25024;DHT22;13033;50.936;5.334;2024-02-26T08:42:26;6.70;99.90
25024;DHT22;13033;50.936;5.334;2024-02-26T08:44:52;6.70;99.90
25024;DHT22;13033;50.936;5.334;2024-02-26T08:47:20;6.70;99.90
25024;DHT22;13033;50.936;5.334;2024-02-26T08:49:45;6.70;99.90
25024;DHT22;13033;50.936;5.334;2024-02-26T08:52:11;6.80;99.90
25024;DHT22;13033;50.936;5.334;2024-02-26T08:54:37;6.80;99.90
25024;DHT22;13033;50.936;5.334;2024-02-26T08:57:03;6.70;99.90
25024;DHT22;13033;50.936;5.334;2024-02-26T08:59:29;6.70;99.90
25024;DHT22;13033;50.936;5.334;2024-02-26T09:01:54;6.70;99.90
25024;DHT22;13033;50.936;5.334;2024-02-26T09:04:20;6.60;99.90
25024;DHT22;13033;50.936;5.334;2024-02-26T09:06:46;6.60;99.90
25024;DHT22;13033;50.936;5.334;2024-02-26T09:09:12;6.60;99.90
25024;DHT22;13033;50.936;5.334;2024-02-26T09:11:38;6.60;99.90
25024;DHT22;13033;50.936;5.334;2024-02-26T09:14:03;6.60;99.90
25024;DHT22;13033;50.936;5.334;2024-02-26T09:16:30;6.70;99.90
25024;DHT22;13033;50.936;5.334;2024-02-26T09:18:57;6.70;99.90
25024;DHT22;13033;50.936;5.334;2024-02-26T09:21:23;6.70;99.90
25024;DHT22;13033;50.936;5.334;2024-02-26T09:23:50;6.80;99.90
25024;DHT22;13033;50.936;5.334;2024-02-26T09:26:16;6.80;99.90
25024;DHT22;13033;50.936;5.334;2024-02-26T09:28:42;6.70;99.90
25024;DHT22;13033;50.936;5.334;2024-02-26T09:31:08;6.70;99.90
25024;DHT22;13033;50.936;5.334;2024-02-26T09:33:34;6.80;99.90
25024;DHT22;13033;50.936;5.334;2024-02-26T09:36:00;6.80;99.90
25024;DHT22;13033;50.936;5.334;2024-02-26T09:38:28;6.90;99.90
25024;DHT22;13033;50.936;5.334;2024-02-26T09:40:57;6.90;99.90
25024;DHT22;13033;50.936;5.334;2024-02-26T09:43:23;6.90;99.90
25024;DHT22;13033;50.936;5.334;2024-02-26T09:45:53;6.90;99.90
25024;DHT22;13033;50.936;5.334;2024-02-26T09:48:20;6.90;99.90
25024;DHT22;13033;50.936;5.334;2024-02-26T09:50:46;6.90;99.90
25024;DHT22;13033;50.936;5.334;2024-02-26T09:53:12;7.00;99.90
25024;DHT22;13033;50.936;5.334;2024-02-26T09:55:40;7.00;99.90
25024;DHT22;13033;50.936;5.334;2024-02-26T09:58:06;7.00;99.90
25024;DHT22;13033;50.936;5.334;2024-02-26T10:00:32;7.00;99.90
25024;DHT22;13033;50.936;5.334;2024-02-26T10:03:04;7.00;99.90
25024;DHT22;13033;50.936;5.334;2024-02-26T10:05:31;6.90;99.90
25024;DHT22;13033;50.936;5.334;2024-02-26T10:07:59;6.90;99.90
25024;DHT22;13033;50.936;5.334;2024-02-26T10:10:28;7.00;99.90
25024;DHT22;13033;50.936;5.334;2024-02-26T10:12:54;7.00;99.90
25024;DHT22;13033;50.936;5.334;2024-02-26T10:15:20;7.10;99.90
25024;DHT22;13033;50.936;5.334;2024-02-26T10:17:46;7.10;99.90
25024;DHT22;13033;50.936;5.334;2024-02-26T10:22:38;7.10;99.90
25024;DHT22;13033;50.936;5.334;2024-02-26T10:25:04;7.10;99.90
25024;DHT22;13033;50.936;5.334;2024-02-26T10:27:30;7.20;99.90
25024;DHT22;13033;50.936;5.334;2024-02-26T10:29:57;7.20;99.90
25024;DHT22;13033;50.936;5.334;2024-02-26T10:32:23;7.10;99.90
25024;DHT22;13033;50.936;5.334;2024-02-26T10:34:55;7.20;99.90
25024;DHT22;13033;50.936;5.334;2024-02-26T10:37:22;7.20;99.90
25024;DHT22;13033;50.936;5.334;2024-02-26T10:39:48;7.30;99.90
25024;DHT22;13033;50.936;5.334;2024-02-26T10:42:13;7.30;99.90
25024;DHT22;13033;50.936;5.334;2024-02-26T10:44:40;7.30;99.90
25024;DHT22;13033;50.936;5.334;2024-02-26T10:47:08;7.30;99.90
25024;DHT22;13033;50.936;5.334;2024-02-26T10:49:35;7.30;99.90
25024;DHT22;13033;50.936;5.334;2024-02-26T10:52:01;7.20;99.90
25024;DHT22;13033;50.936;5.334;2024-02-26T10:54:29;7.20;99.90
25024;DHT22;13033;50.936;5.334;2024-02-26T10:56:57;7.30;99.90
25024;DHT22;13033;50.936;5.334;2024-02-26T10:59:24;7.10;99.90
25024;DHT22;13033;50.936;5.334;2024-02-26T11:01:50;7.10;99.90
25024;DHT22;13033;50.936;5.334;2024-02-26T11:04:17;7.00;99.90
25024;DHT22;13033;50.936;5.334;2024-02-26T11:06:44;7.10;99.90
25024;DHT22;13033;50.936;5.334;2024-02-26T11:09:12;7.10;99.90
25024;DHT22;13033;50.936;5.334;2024-02-26T11:11:41;7.10;99.90
25024;DHT22;13033;50.936;5.334;2024-02-26T11:14:09;7.10;99.90
25024;DHT22;13033;50.936;5.334;2024-02-26T11:16:35;6.90;99.90
25024;DHT22;13033;50.936;5.334;2024-02-26T11:19:02;6.90;99.90
25024;DHT22;13033;50.936;5.334;2024-02-26T11:21:28;6.90;99.90
25024;DHT22;13033;50.936;5.334;2024-02-26T11:24:12;7.00;99.90
25024;DHT22;13033;50.936;5.334;2024-02-26T11:26:43;7.00;99.90
25024;DHT22;13033;50.936;5.334;2024-02-26T11:29:11;7.00;99.90
25024;DHT22;13033;50.936;5.334;2024-02-26T11:31:39;7.00;99.90
25024;DHT22;13033;50.936;5.334;2024-02-26T11:34:07;6.90;99.90
25024;DHT22;13033;50.936;5.334;2024-02-26T11:36:34;6.90;99.90
25024;DHT22;13033;50.936;5.334;2024-02-26T11:39:01;6.90;99.90
25024;DHT22;13033;50.936;5.334;2024-02-26T11:41:29;7.00;99.90
25024;DHT22;13033;50.936;5.334;2024-02-26T11:43:58;7.00;99.90
25024;DHT22;13033;50.936;5.334;2024-02-26T11:46:33;6.90;99.90
25024;DHT22;13033;50.936;5.334;2024-02-26T11:51:54;6.90;99.90
25024;DHT22;13033;50.936;5.334;2024-02-26T11:57:20;7.00;99.90
25024;DHT22;13033;50.936;5.334;2024-02-26T11:59:46;7.00;99.90
25024;DHT22;13033;50.936;5.334;2024-02-26T12:02:19;7.00;99.90
25024;DHT22;13033;50.936;5.334;2024-02-26T12:04:58;6.90;99.90
25024;DHT22;13033;50.936;5.334;2024-02-26T12:07:24;7.00;99.90
25024;DHT22;13033;50.936;5.334;2024-02-26T12:09:49;7.10;99.90
25024;DHT22;13033;50.936;5.334;2024-02-26T12:12:18;7.20;99.90
25024;DHT22;13033;50.936;5.334;2024-02-26T12:14:55;7.20;99.90
25024;DHT22;13033;50.936;5.334;2024-02-26T12:17:25;7.10;99.90
25024;DHT22;13033;50.936;5.334;2024-02-26T12:19:51;7.00;99.90
25024;DHT22;13033;50.936;5.334;2024-02-26T12:22:19;7.10;99.90
25024;DHT22;13033;50.936;5.334;2024-02-26T12:24:45;7.10;99.90
25024;DHT22;13033;50.936;5.334;2024-02-26T12:27:10;7.10;99.90
25024;DHT22;13033;50.936;5.334;2024-02-26T12:29:36;7.20;99.90
25024;DHT22;13033;50.936;5.334;2024-02-26T12:32:03;7.10;99.90
25024;DHT22;13033;50.936;5.334;2024-02-26T12:34:29;7.20;99.90
25024;DHT22;13033;50.936;5.334;2024-02-26T12:36:56;7.20;99.90
25024;DHT22;13033;50.936;5.334;2024-02-26T12:39:22;7.30;99.90
25024;DHT22;13033;50.936;5.334;2024-02-26T12:41:48;7.30;99.90
25024;DHT22;13033;50.936;5.334;2024-02-26T12:44:18;7.40;99.90
25024;DHT22;13033;50.936;5.334;2024-02-26T12:46:44;7.50;99.90
25024;DHT22;13033;50.936;5.334;2024-02-26T12:49:15;7.60;99.90
25024;DHT22;13033;50.936;5.334;2024-02-26T12:51:41;7.60;99.90
25024;DHT22;13033;50.936;5.334;2024-02-26T12:54:07;7.70;99.90
25024;DHT22;13033;50.936;5.334;2024-02-26T12:56:34;7.60;99.90
25024;DHT22;13033;50.936;5.334;2024-02-26T12:59:00;7.70;99.90
25024;DHT22;13033;50.936;5.334;2024-02-26T13:01:26;7.90;99.90
25024;DHT22;13033;50.936;5.334;2024-02-26T13:03:53;7.90;99.90
25024;DHT22;13033;50.936;5.334;2024-02-26T13:06:19;8.10;99.90
25024;DHT22;13033;50.936;5.334;2024-02-26T13:08:48;8.30;99.90
25024;DHT22;13033;50.936;5.334;2024-02-26T13:11:14;8.30;99.90
25024;DHT22;13033;50.936;5.334;2024-02-26T13:13:40;8.30;99.90
25024;DHT22;13033;50.936;5.334;2024-02-26T13:16:08;8.40;99.90
25024;DHT22;13033;50.936;5.334;2024-02-26T13:18:34;8.40;99.90
25024;DHT22;13033;50.936;5.334;2024-02-26T13:21:17;8.20;99.90
25024;DHT22;13033;50.936;5.334;2024-02-26T13:23:45;8.10;99.90
25024;DHT22;13033;50.936;5.334;2024-02-26T13:26:13;7.90;99.90
25024;DHT22;13033;50.936;5.334;2024-02-26T13:28:40;7.80;99.90
25024;DHT22;13033;50.936;5.334;2024-02-26T13:31:06;7.90;99.90
25024;DHT22;13033;50.936;5.334;2024-02-26T13:33:33;7.90;99.90
25024;DHT22;13033;50.936;5.334;2024-02-26T13:35:59;7.90;99.90
25024;DHT22;13033;50.936;5.334;2024-02-26T13:38:26;7.90;99.90
25024;DHT22;13033;50.936;5.334;2024-02-26T13:40:52;8.00;99.90
25024;DHT22;13033;50.936;5.334;2024-02-26T13:43:19;7.90;99.90
25024;DHT22;13033;50.936;5.334;2024-02-26T13:45:46;7.90;99.90
25024;DHT22;13033;50.936;5.334;2024-02-26T13:48:12;7.80;99.90
25024;DHT22;13033;50.936;5.334;2024-02-26T13:50:39;7.80;99.90
25024;DHT22;13033;50.936;5.334;2024-02-26T13:53:05;7.70;99.90
25024;DHT22;13033;50.936;5.334;2024-02-26T13:55:31;7.70;99.90
25024;DHT22;13033;50.936;5.334;2024-02-26T13:57:58;7.70;99.90
25024;DHT22;13033;50.936;5.334;2024-02-26T14:00:26;7.80;99.90
25024;DHT22;13033;50.936;5.334;2024-02-26T14:02:52;7.80;99.90
25024;DHT22;13033;50.936;5.334;2024-02-26T14:05:18;7.90;99.90
25024;DHT22;13033;50.936;5.334;2024-02-26T14:07:44;8.00;99.90
25024;DHT22;13033;50.936;5.334;2024-02-26T14:10:11;8.20;99.90
25024;DHT22;13033;50.936;5.334;2024-02-26T14:12:38;8.10;99.90
25024;DHT22;13033;50.936;5.334;2024-02-26T14:15:07;7.90;99.90
25024;DHT22;13033;50.936;5.334;2024-02-26T14:17:33;7.90;99.90
25024;DHT22;13033;50.936;5.334;2024-02-26T14:19:59;7.90;99.90
25024;DHT22;13033;50.936;5.334;2024-02-26T14:22:25;7.90;99.90
25024;DHT22;13033;50.936;5.334;2024-02-26T14:24:53;7.90;99.90
25024;DHT22;13033;50.936;5.334;2024-02-26T14:27:19;7.80;99.90
25024;DHT22;13033;50.936;5.334;2024-02-26T14:29:47;7.80;99.90
25024;DHT22;13033;50.936;5.334;2024-02-26T14:32:13;7.80;99.90
25024;DHT22;13033;50.936;5.334;2024-02-26T14:34:39;7.80;99.90
25024;DHT22;13033;50.936;5.334;2024-02-26T14:37:05;7.80;99.90
25024;DHT22;13033;50.936;5.334;2024-02-26T14:39:34;7.80;99.90
25024;DHT22;13033;50.936;5.334;2024-02-26T14:42:00;7.70;99.90
25024;DHT22;13033;50.936;5.334;2024-02-26T14:44:26;7.80;99.90
25024;DHT22;13033;50.936;5.334;2024-02-26T14:46:52;7.70;99.90
25024;DHT22;13033;50.936;5.334;2024-02-26T14:49:18;7.70;99.90
25024;DHT22;13033;50.936;5.334;2024-02-26T14:51:44;7.70;99.90
25024;DHT22;13033;50.936;5.334;2024-02-26T14:54:14;7.70;99.90
25024;DHT22;13033;50.936;5.334;2024-02-26T14:56:40;7.70;99.90
25024;DHT22;13033;50.936;5.334;2024-02-26T14:59:06;7.70;99.90
25024;DHT22;13033;50.936;5.334;2024-02-26T15:01:32;7.80;99.90
25024;DHT22;13033;50.936;5.334;2024-02-26T15:03:58;7.80;99.90
25024;DHT22;13033;50.936;5.334;2024-02-26T15:06:25;7.90;99.90
25024;DHT22;13033;50.936;5.334;2024-02-26T15:08:51;7.80;99.90
25024;DHT22;13033;50.936;5.334;2024-02-26T15:11:17;7.80;99.90
25024;DHT22;13033;50.936;5.334;2024-02-26T15:13:43;7.80;99.90
25024;DHT22;13033;50.936;5.334;2024-02-26T15:16:08;7.90;99.90
25024;DHT22;13033;50.936;5.334;2024-02-26T15:18:36;8.00;99.90
25024;DHT22;13033;50.936;5.334;2024-02-26T15:21:02;7.80;99.90
25024;DHT22;13033;50.936;5.334;2024-02-26T15:23:28;7.70;99.90
25024;DHT22;13033;50.936;5.334;2024-02-26T15:25:54;7.60;99.90
25024;DHT22;13033;50.936;5.334;2024-02-26T15:28:20;7.70;99.90
25024;DHT22;13033;50.936;5.334;2024-02-26T15:30:46;7.70;99.90
25024;DHT22;13033;50.936;5.334;2024-02-26T15:33:13;7.60;99.90
25024;DHT22;13033;50.936;5.334;2024-02-26T15:35:39;7.70;99.90
25024;DHT22;13033;50.936;5.334;2024-02-26T15:38:05;7.70;99.90
25024;DHT22;13033;50.936;5.334;2024-02-26T15:40:30;7.80;99.90
25024;DHT22;13033;50.936;5.334;2024-02-26T15:42:56;7.60;99.90
25024;DHT22;13033;50.936;5.334;2024-02-26T15:45:22;7.70;99.90
25024;DHT22;13033;50.936;5.334;2024-02-26T15:47:50;7.80;99.90